sensor_id;sensor_type;location;lat;lon;timestamp;P1;durP1;ratioP1;P2;durP2;ratioP2
840;SDS011;406;48.566;13.450;2024-02-26T00:00:06;202.48;;;24.70;;
840;SDS011;406;48.566;13.450;2024-02-26T00:02:36;194.27;;;27.10;;
840;SDS011;406;48.566;13.450;2024-02-26T00:05:05;152.50;;;27.50;;
840;SDS011;406;48.566;13.450;2024-02-26T00:07:32;113.65;;;18.60;;
840;SDS011;406;48.566;13.450;2024-02-26T00:09:59;73.97;;;15.85;;
840;SDS011;406;48.566;13.450;2024-02-26T00:12:25;91.35;;;18.23;;
840;SDS011;406;48.566;13.450;2024-02-26T00:14:52;124.10;;;21.42;;
840;SDS011;406;48.566;13.450;2024-02-26T00:17:20;101.25;;;17.95;;
840;SDS011;406;48.566;13.450;2024-02-26T00:19:46;118.63;;;21.27;;
840;SDS011;406;48.566;13.450;2024-02-26T00:22:13;95.43;;;19.25;;
840;SDS011;406;48.566;13.450;2024-02-26T00:24:40;170.30;;;23.33;;
840;SDS011;406;48.566;13.450;2024-02-26T00:27:07;167.77;;;27.88;;
840;SDS011;406;48.566;13.450;2024-02-26T00:29:33;38.80;;;14.10;;
840;SDS011;406;48.566;13.450;2024-02-26T00:32:00;98.38;;;18.10;;
840;SDS011;406;48.566;13.450;2024-02-26T00:34:26;142.45;;;27.60;;
840;SDS011;406;48.566;13.450;2024-02-26T00:36:53;115.30;;;21.13;;
840;SDS011;406;48.566;13.450;2024-02-26T00:39:19;128.30;;;19.90;;
840;SDS011;406;48.566;13.450;2024-02-26T00:41:46;101.13;;;18.48;;
840;SDS011;406;48.566;13.450;2024-02-26T00:44:13;79.82;;;18.25;;
840;SDS011;406;48.566;13.450;2024-02-26T00:46:39;53.67;;;14.30;;
840;SDS011;406;48.566;13.450;2024-02-26T00:49:06;86.80;;;18.33;;
840;SDS011;406;48.566;13.450;2024-02-26T00:51:32;87.60;;;16.10;;
840;SDS011;406;48.566;13.450;2024-02-26T00:53:59;140.82;;;22.90;;
840;SDS011;406;48.566;13.450;2024-02-26T00:56:26;154.52;;;22.52;;
840;SDS011;406;48.566;13.450;2024-02-26T00:58:52;80.40;;;14.73;;
840;SDS011;406;48.566;13.450;2024-02-26T01:01:19;82.75;;;19.17;;
840;SDS011;406;48.566;13.450;2024-02-26T01:03:46;106.15;;;21.33;;
840;SDS011;406;48.566;13.450;2024-02-26T01:06:12;86.20;;;16.40;;
840;SDS011;406;48.566;13.450;2024-02-26T01:08:39;66.95;;;14.18;;
840;SDS011;406;48.566;13.450;2024-02-26T01:11:06;71.93;;;15.30;;
840;SDS011;406;48.566;13.450;2024-02-26T01:13:33;116.65;;;16.95;;
840;SDS011;406;48.566;13.450;2024-02-26T01:16:00;145.57;;;25.65;;
840;SDS011;406;48.566;13.450;2024-02-26T01:18:27;213.82;;;35.67;;
840;SDS011;406;48.566;13.450;2024-02-26T01:20:54;95.75;;;19.55;;
840;SDS011;406;48.566;13.450;2024-02-26T01:23:21;62.08;;;13.20;;
840;SDS011;406;48.566;13.450;2024-02-26T01:25:47;190.98;;;26.55;;
840;SDS011;406;48.566;13.450;2024-02-26T01:28:14;79.40;;;15.68;;
840;SDS011;406;48.566;13.450;2024-02-26T01:30:41;151.10;;;22.00;;
840;SDS011;406;48.566;13.450;2024-02-26T01:33:07;80.70;;;17.73;;
840;SDS011;406;48.566;13.450;2024-02-26T01:35:34;126.35;;;21.88;;
840;SDS011;406;48.566;13.450;2024-02-26T01:38:01;55.00;;;15.00;;
840;SDS011;406;48.566;13.450;2024-02-26T01:40:27;141.85;;;20.65;;
840;SDS011;406;48.566;13.450;2024-02-26T01:42:54;74.57;;;14.65;;
840;SDS011;406;48.566;13.450;2024-02-26T01:45:20;72.05;;;15.70;;
840;SDS011;406;48.566;13.450;2024-02-26T01:47:53;62.28;;;14.20;;
840;SDS011;406;48.566;13.450;2024-02-26T01:50:21;92.78;;;16.88;;
840;SDS011;406;48.566;13.450;2024-02-26T01:52:51;143.63;;;22.60;;
840;SDS011;406;48.566;13.450;2024-02-26T01:55:17;147.95;;;22.98;;
840;SDS011;406;48.566;13.450;2024-02-26T01:57:45;212.35;;;28.60;;
840;SDS011;406;48.566;13.450;2024-02-26T02:00:12;198.18;;;24.88;;
840;SDS011;406;48.566;13.450;2024-02-26T02:02:40;119.60;;;17.63;;
840;SDS011;406;48.566;13.450;2024-02-26T02:05:08;153.00;;;18.83;;
840;SDS011;406;48.566;13.450;2024-02-26T02:07:35;110.68;;;15.13;;
840;SDS011;406;48.566;13.450;2024-02-26T02:10:02;91.53;;;15.90;;
840;SDS011;406;48.566;13.450;2024-02-26T02:12:29;143.60;;;19.15;;
840;SDS011;406;48.566;13.450;2024-02-26T02:14:59;73.80;;;16.20;;
840;SDS011;406;48.566;13.450;2024-02-26T02:17:25;79.55;;;16.73;;
840;SDS011;406;48.566;13.450;2024-02-26T02:19:53;201.80;;;27.45;;
840;SDS011;406;48.566;13.450;2024-02-26T02:22:20;52.92;;;11.95;;
840;SDS011;406;48.566;13.450;2024-02-26T02:24:47;184.73;;;29.42;;
840;SDS011;406;48.566;13.450;2024-02-26T02:27:13;203.70;;;29.10;;
840;SDS011;406;48.566;13.450;2024-02-26T02:29:40;181.75;;;28.98;;
840;SDS011;406;48.566;13.450;2024-02-26T02:32:06;85.75;;;18.85;;
840;SDS011;406;48.566;13.450;2024-02-26T02:34:33;121.82;;;18.60;;
840;SDS011;406;48.566;13.450;2024-02-26T02:37:00;106.57;;;16.90;;
840;SDS011;406;48.566;13.450;2024-02-26T02:39:27;121.25;;;20.40;;
840;SDS011;406;48.566;13.450;2024-02-26T02:41:53;77.63;;;16.35;;
840;SDS011;406;48.566;13.450;2024-02-26T02:44:20;73.43;;;15.98;;
840;SDS011;406;48.566;13.450;2024-02-26T02:46:46;82.85;;;17.65;;
840;SDS011;406;48.566;13.450;2024-02-26T02:49:13;93.93;;;15.90;;
840;SDS011;406;48.566;13.450;2024-02-26T02:51:40;109.05;;;19.90;;
840;SDS011;406;48.566;13.450;2024-02-26T02:54:07;131.57;;;18.33;;
840;SDS011;406;48.566;13.450;2024-02-26T02:56:33;112.20;;;16.88;;
840;SDS011;406;48.566;13.450;2024-02-26T02:59:00;162.27;;;21.23;;
840;SDS011;406;48.566;13.450;2024-02-26T03:01:26;132.02;;;20.55;;
840;SDS011;406;48.566;13.450;2024-02-26T03:03:53;179.93;;;26.05;;
840;SDS011;406;48.566;13.450;2024-02-26T03:06:20;128.90;;;22.95;;
840;SDS011;406;48.566;13.450;2024-02-26T03:08:47;29.17;;;9.95;;
840;SDS011;406;48.566;13.450;2024-02-26T03:11:14;115.63;;;21.75;;
840;SDS011;406;48.566;13.450;2024-02-26T03:13:43;45.63;;;10.13;;
840;SDS011;406;48.566;13.450;2024-02-26T03:16:10;25.38;;;10.43;;
840;SDS011;406;48.566;13.450;2024-02-26T03:18:38;48.55;;;15.32;;
840;SDS011;406;48.566;13.450;2024-02-26T03:21:06;83.22;;;16.25;;
840;SDS011;406;48.566;13.450;2024-02-26T03:23:33;37.92;;;11.55;;
840;SDS011;406;48.566;13.450;2024-02-26T03:26:03;68.82;;;14.65;;
840;SDS011;406;48.566;13.450;2024-02-26T03:28:30;44.17;;;12.80;;
840;SDS011;406;48.566;13.450;2024-02-26T03:30:59;34.92;;;12.60;;
840;SDS011;406;48.566;13.450;2024-02-26T03:33:26;46.45;;;12.40;;
840;SDS011;406;48.566;13.450;2024-02-26T03:35:53;81.90;;;14.75;;
840;SDS011;406;48.566;13.450;2024-02-26T03:38:20;54.40;;;12.75;;
840;SDS011;406;48.566;13.450;2024-02-26T03:40:46;30.92;;;9.95;;
840;SDS011;406;48.566;13.450;2024-02-26T03:43:13;66.10;;;13.95;;
840;SDS011;406;48.566;13.450;2024-02-26T03:45:40;63.67;;;14.18;;
840;SDS011;406;48.566;13.450;2024-02-26T03:48:06;48.17;;;11.80;;
840;SDS011;406;48.566;13.450;2024-02-26T03:50:33;63.85;;;11.63;;
840;SDS011;406;48.566;13.450;2024-02-26T03:53:00;80.75;;;17.00;;
840;SDS011;406;48.566;13.450;2024-02-26T03:55:27;69.80;;;14.30;;
840;SDS011;406;48.566;13.450;2024-02-26T03:57:54;53.53;;;10.40;;
840;SDS011;406;48.566;13.450;2024-02-26T04:00:20;47.58;;;10.02;;
840;SDS011;406;48.566;13.450;2024-02-26T04:02:48;35.67;;;9.73;;
840;SDS011;406;48.566;13.450;2024-02-26T04:05:15;58.60;;;10.60;;
840;SDS011;406;48.566;13.450;2024-02-26T04:07:42;35.40;;;9.73;;
840;SDS011;406;48.566;13.450;2024-02-26T04:10:11;32.90;;;10.07;;
840;SDS011;406;48.566;13.450;2024-02-26T04:12:39;54.38;;;11.73;;
840;SDS011;406;48.566;13.450;2024-02-26T04:15:07;65.20;;;13.35;;
840;SDS011;406;48.566;13.450;2024-02-26T04:17:35;80.38;;;17.63;;
840;SDS011;406;48.566;13.450;2024-02-26T04:20:02;76.53;;;16.10;;
840;SDS011;406;48.566;13.450;2024-02-26T04:22:30;71.55;;;12.77;;
840;SDS011;406;48.566;13.450;2024-02-26T04:24:56;56.20;;;11.90;;
840;SDS011;406;48.566;13.450;2024-02-26T04:27:23;55.63;;;11.30;;
840;SDS011;406;48.566;13.450;2024-02-26T04:29:49;21.97;;;8.40;;
840;SDS011;406;48.566;13.450;2024-02-26T04:32:16;31.55;;;8.55;;
840;SDS011;406;48.566;13.450;2024-02-26T04:34:42;53.20;;;12.10;;
840;SDS011;406;48.566;13.450;2024-02-26T04:37:09;62.45;;;13.85;;
840;SDS011;406;48.566;13.450;2024-02-26T04:39:36;106.55;;;21.95;;
840;SDS011;406;48.566;13.450;2024-02-26T04:42:02;35.47;;;11.35;;
840;SDS011;406;48.566;13.450;2024-02-26T04:44:30;49.80;;;12.98;;
840;SDS011;406;48.566;13.450;2024-02-26T04:46:57;27.52;;;9.82;;
840;SDS011;406;48.566;13.450;2024-02-26T04:49:23;22.00;;;10.20;;
840;SDS011;406;48.566;13.450;2024-02-26T04:51:50;66.23;;;10.97;;
840;SDS011;406;48.566;13.450;2024-02-26T04:54:16;32.22;;;10.38;;
840;SDS011;406;48.566;13.450;2024-02-26T04:56:43;43.25;;;12.00;;
840;SDS011;406;48.566;13.450;2024-02-26T04:59:10;29.45;;;6.88;;
840;SDS011;406;48.566;13.450;2024-02-26T05:01:37;28.13;;;9.13;;
840;SDS011;406;48.566;13.450;2024-02-26T05:04:03;110.28;;;14.45;;
840;SDS011;406;48.566;13.450;2024-02-26T05:06:30;20.95;;;7.70;;
840;SDS011;406;48.566;13.450;2024-02-26T05:08:57;23.00;;;7.30;;
840;SDS011;406;48.566;13.450;2024-02-26T05:11:23;226.82;;;28.13;;
840;SDS011;406;48.566;13.450;2024-02-26T05:13:50;83.38;;;13.98;;
840;SDS011;406;48.566;13.450;2024-02-26T05:16:17;39.78;;;8.63;;
840;SDS011;406;48.566;13.450;2024-02-26T05:18:43;118.15;;;19.02;;
840;SDS011;406;48.566;13.450;2024-02-26T05:21:10;60.00;;;13.40;;
840;SDS011;406;48.566;13.450;2024-02-26T05:23:36;172.93;;;18.75;;
840;SDS011;406;48.566;13.450;2024-02-26T05:26:03;137.80;;;17.98;;
840;SDS011;406;48.566;13.450;2024-02-26T05:28:29;120.25;;;15.90;;
840;SDS011;406;48.566;13.450;2024-02-26T05:30:56;109.03;;;15.07;;
840;SDS011;406;48.566;13.450;2024-02-26T05:33:23;179.02;;;18.30;;
840;SDS011;406;48.566;13.450;2024-02-26T05:35:49;142.75;;;13.68;;
840;SDS011;406;48.566;13.450;2024-02-26T05:38:16;134.13;;;16.60;;
840;SDS011;406;48.566;13.450;2024-02-26T05:40:43;123.95;;;17.80;;
840;SDS011;406;48.566;13.450;2024-02-26T05:43:09;114.90;;;14.65;;
840;SDS011;406;48.566;13.450;2024-02-26T05:45:36;55.58;;;11.88;;
840;SDS011;406;48.566;13.450;2024-02-26T05:48:02;123.80;;;14.57;;
840;SDS011;406;48.566;13.450;2024-02-26T05:50:29;63.15;;;11.27;;
840;SDS011;406;48.566;13.450;2024-02-26T05:52:56;129.00;;;19.15;;
840;SDS011;406;48.566;13.450;2024-02-26T05:55:22;52.45;;;9.85;;
840;SDS011;406;48.566;13.450;2024-02-26T05:57:49;78.88;;;11.55;;
840;SDS011;406;48.566;13.450;2024-02-26T06:00:16;50.90;;;10.10;;
840;SDS011;406;48.566;13.450;2024-02-26T06:02:42;50.42;;;10.40;;
840;SDS011;406;48.566;13.450;2024-02-26T06:05:09;76.15;;;10.23;;
840;SDS011;406;48.566;13.450;2024-02-26T06:07:36;76.78;;;12.93;;
840;SDS011;406;48.566;13.450;2024-02-26T06:10:02;68.93;;;11.20;;
840;SDS011;406;48.566;13.450;2024-02-26T06:12:31;25.23;;;9.18;;
840;SDS011;406;48.566;13.450;2024-02-26T06:14:57;94.25;;;15.18;;
840;SDS011;406;48.566;13.450;2024-02-26T06:17:28;54.85;;;11.57;;
840;SDS011;406;48.566;13.450;2024-02-26T06:19:54;101.70;;;13.23;;
840;SDS011;406;48.566;13.450;2024-02-26T06:22:21;28.40;;;7.80;;
840;SDS011;406;48.566;13.450;2024-02-26T06:24:47;26.73;;;8.45;;
840;SDS011;406;48.566;13.450;2024-02-26T06:27:14;71.38;;;12.88;;
840;SDS011;406;48.566;13.450;2024-02-26T06:29:40;93.15;;;16.17;;
840;SDS011;406;48.566;13.450;2024-02-26T06:32:07;130.45;;;14.38;;
840;SDS011;406;48.566;13.450;2024-02-26T06:34:33;50.72;;;10.30;;
840;SDS011;406;48.566;13.450;2024-02-26T06:37:00;26.77;;;8.13;;
840;SDS011;406;48.566;13.450;2024-02-26T06:39:27;38.55;;;9.38;;
840;SDS011;406;48.566;13.450;2024-02-26T06:41:54;52.63;;;9.77;;
840;SDS011;406;48.566;13.450;2024-02-26T06:44:29;44.78;;;8.38;;
840;SDS011;406;48.566;13.450;2024-02-26T06:46:58;45.10;;;9.65;;
840;SDS011;406;48.566;13.450;2024-02-26T06:49:28;71.03;;;10.63;;
840;SDS011;406;48.566;13.450;2024-02-26T06:51:55;36.33;;;9.20;;
840;SDS011;406;48.566;13.450;2024-02-26T06:54:22;57.38;;;9.60;;
840;SDS011;406;48.566;13.450;2024-02-26T06:56:48;30.58;;;8.85;;
840;SDS011;406;48.566;13.450;2024-02-26T06:59:15;31.13;;;9.32;;
840;SDS011;406;48.566;13.450;2024-02-26T07:01:42;57.65;;;9.27;;
840;SDS011;406;48.566;13.450;2024-02-26T07:04:08;26.90;;;8.38;;
840;SDS011;406;48.566;13.450;2024-02-26T07:06:37;31.63;;;8.35;;
840;SDS011;406;48.566;13.450;2024-02-26T07:09:04;30.05;;;8.20;;
840;SDS011;406;48.566;13.450;2024-02-26T07:11:31;81.85;;;11.85;;
840;SDS011;406;48.566;13.450;2024-02-26T07:13:57;61.08;;;10.73;;
840;SDS011;406;48.566;13.450;2024-02-26T07:16:24;48.80;;;10.05;;
840;SDS011;406;48.566;13.450;2024-02-26T07:18:50;76.35;;;9.18;;
840;SDS011;406;48.566;13.450;2024-02-26T07:21:17;40.58;;;7.30;;
840;SDS011;406;48.566;13.450;2024-02-26T07:23:43;24.95;;;7.00;;
840;SDS011;406;48.566;13.450;2024-02-26T07:26:10;64.53;;;13.63;;
840;SDS011;406;48.566;13.450;2024-02-26T07:28:38;30.75;;;7.28;;
840;SDS011;406;48.566;13.450;2024-02-26T07:31:04;36.85;;;8.00;;
840;SDS011;406;48.566;13.450;2024-02-26T07:33:31;23.70;;;6.55;;
840;SDS011;406;48.566;13.450;2024-02-26T07:35:58;35.20;;;6.33;;
840;SDS011;406;48.566;13.450;2024-02-26T07:38:24;39.03;;;8.00;;
840;SDS011;406;48.566;13.450;2024-02-26T07:41:07;29.13;;;7.43;;
840;SDS011;406;48.566;13.450;2024-02-26T07:43:34;24.50;;;6.60;;
840;SDS011;406;48.566;13.450;2024-02-26T07:46:01;11.67;;;6.33;;
840;SDS011;406;48.566;13.450;2024-02-26T07:48:28;19.10;;;6.27;;
840;SDS011;406;48.566;13.450;2024-02-26T07:50:54;15.05;;;6.35;;
840;SDS011;406;48.566;13.450;2024-02-26T07:53:21;14.70;;;6.40;;
840;SDS011;406;48.566;13.450;2024-02-26T07:55:48;15.73;;;6.60;;
840;SDS011;406;48.566;13.450;2024-02-26T07:58:14;9.70;;;6.60;;
840;SDS011;406;48.566;13.450;2024-02-26T08:00:41;12.63;;;6.47;;
840;SDS011;406;48.566;13.450;2024-02-26T08:03:07;7.80;;;6.07;;
840;SDS011;406;48.566;13.450;2024-02-26T08:05:34;8.90;;;5.67;;
840;SDS011;406;48.566;13.450;2024-02-26T08:08:01;9.43;;;5.93;;
840;SDS011;406;48.566;13.450;2024-02-26T08:10:27;10.43;;;6.47;;
840;SDS011;406;48.566;13.450;2024-02-26T08:12:58;8.30;;;5.37;;
840;SDS011;406;48.566;13.450;2024-02-26T08:15:37;7.47;;;5.57;;
840;SDS011;406;48.566;13.450;2024-02-26T08:18:04;10.53;;;5.90;;
840;SDS011;406;48.566;13.450;2024-02-26T08:20:32;10.43;;;6.80;;
840;SDS011;406;48.566;13.450;2024-02-26T08:22:58;6.43;;;5.83;;
840;SDS011;406;48.566;13.450;2024-02-26T08:25:25;8.40;;;6.47;;
840;SDS011;406;48.566;13.450;2024-02-26T08:27:52;6.40;;;5.23;;
840;SDS011;406;48.566;13.450;2024-02-26T08:30:18;7.07;;;6.37;;
840;SDS011;406;48.566;13.450;2024-02-26T08:32:45;7.80;;;6.00;;
840;SDS011;406;48.566;13.450;2024-02-26T08:35:17;7.00;;;5.03;;
840;SDS011;406;48.566;13.450;2024-02-26T08:37:45;8.80;;;6.43;;
840;SDS011;406;48.566;13.450;2024-02-26T08:40:12;9.33;;;6.00;;
840;SDS011;406;48.566;13.450;2024-02-26T08:42:39;9.30;;;6.20;;
840;SDS011;406;48.566;13.450;2024-02-26T08:45:07;7.77;;;5.83;;
840;SDS011;406;48.566;13.450;2024-02-26T08:47:34;8.80;;;6.35;;
840;SDS011;406;48.566;13.450;2024-02-26T08:50:01;7.10;;;5.23;;
840;SDS011;406;48.566;13.450;2024-02-26T08:52:27;9.97;;;6.57;;
840;SDS011;406;48.566;13.450;2024-02-26T08:54:54;6.60;;;4.83;;
840;SDS011;406;48.566;13.450;2024-02-26T08:57:20;7.07;;;6.07;;
840;SDS011;406;48.566;13.450;2024-02-26T08:59:47;5.50;;;4.77;;
840;SDS011;406;48.566;13.450;2024-02-26T09:02:13;9.90;;;6.20;;
840;SDS011;406;48.566;13.450;2024-02-26T09:04:40;6.13;;;5.10;;
840;SDS011;406;48.566;13.450;2024-02-26T09:07:07;5.77;;;4.83;;
840;SDS011;406;48.566;13.450;2024-02-26T09:09:33;6.03;;;4.67;;
840;SDS011;406;48.566;13.450;2024-02-26T09:12:00;6.60;;;4.70;;
840;SDS011;406;48.566;13.450;2024-02-26T09:14:27;7.20;;;5.50;;
840;SDS011;406;48.566;13.450;2024-02-26T09:16:54;9.13;;;5.67;;
840;SDS011;406;48.566;13.450;2024-02-26T09:19:20;6.93;;;5.07;;
840;SDS011;406;48.566;13.450;2024-02-26T09:21:47;6.87;;;5.50;;
840;SDS011;406;48.566;13.450;2024-02-26T09:24:13;4.83;;;4.33;;
840;SDS011;406;48.566;13.450;2024-02-26T09:26:41;8.20;;;6.00;;
840;SDS011;406;48.566;13.450;2024-02-26T09:29:07;7.00;;;6.27;;
840;SDS011;406;48.566;13.450;2024-02-26T09:31:34;6.63;;;5.10;;
840;SDS011;406;48.566;13.450;2024-02-26T09:34:01;5.57;;;4.97;;
840;SDS011;406;48.566;13.450;2024-02-26T09:36:29;6.87;;;5.00;;
840;SDS011;406;48.566;13.450;2024-02-26T09:38:55;6.23;;;5.57;;
840;SDS011;406;48.566;13.450;2024-02-26T09:41:30;6.63;;;4.43;;
840;SDS011;406;48.566;13.450;2024-02-26T09:43:57;4.33;;;3.43;;
840;SDS011;406;48.566;13.450;2024-02-26T09:46:26;4.80;;;3.60;;
840;SDS011;406;48.566;13.450;2024-02-26T09:48:52;7.27;;;3.83;;
840;SDS011;406;48.566;13.450;2024-02-26T09:51:19;5.70;;;4.00;;
840;SDS011;406;48.566;13.450;2024-02-26T09:53:54;6.67;;;5.57;;
840;SDS011;406;48.566;13.450;2024-02-26T09:56:21;8.63;;;5.70;;
840;SDS011;406;48.566;13.450;2024-02-26T09:58:47;6.10;;;4.53;;
840;SDS011;406;48.566;13.450;2024-02-26T10:01:19;6.50;;;5.00;;
840;SDS011;406;48.566;13.450;2024-02-26T10:03:48;7.00;;;5.30;;
840;SDS011;406;48.566;13.450;2024-02-26T10:06:27;7.37;;;5.10;;
840;SDS011;406;48.566;13.450;2024-02-26T10:08:54;5.70;;;4.20;;
840;SDS011;406;48.566;13.450;2024-02-26T10:11:22;5.47;;;4.73;;
840;SDS011;406;48.566;13.450;2024-02-26T10:13:50;5.90;;;4.80;;
840;SDS011;406;48.566;13.450;2024-02-26T10:16:16;7.17;;;5.87;;
840;SDS011;406;48.566;13.450;2024-02-26T10:18:47;7.97;;;4.70;;
840;SDS011;406;48.566;13.450;2024-02-26T10:21:25;5.07;;;4.00;;
840;SDS011;406;48.566;13.450;2024-02-26T10:23:52;4.77;;;4.30;;
840;SDS011;406;48.566;13.450;2024-02-26T10:26:19;6.97;;;5.10;;
840;SDS011;406;48.566;13.450;2024-02-26T10:28:46;5.77;;;4.07;;
840;SDS011;406;48.566;13.450;2024-02-26T10:31:18;6.50;;;4.77;;
840;SDS011;406;48.566;13.450;2024-02-26T10:33:45;5.20;;;4.70;;
840;SDS011;406;48.566;13.450;2024-02-26T10:36:12;4.53;;;4.10;;
840;SDS011;406;48.566;13.450;2024-02-26T10:38:38;7.17;;;4.97;;
840;SDS011;406;48.566;13.450;2024-02-26T10:41:12;7.13;;;4.83;;
840;SDS011;406;48.566;13.450;2024-02-26T10:43:39;4.40;;;4.00;;
840;SDS011;406;48.566;13.450;2024-02-26T10:46:06;5.50;;;5.00;;
840;SDS011;406;48.566;13.450;2024-02-26T10:48:33;4.83;;;4.13;;
840;SDS011;406;48.566;13.450;2024-02-26T10:51:00;6.27;;;4.70;;
840;SDS011;406;48.566;13.450;2024-02-26T10:53:29;4.90;;;4.40;;
840;SDS011;406;48.566;13.450;2024-02-26T10:56:00;5.17;;;4.67;;
840;SDS011;406;48.566;13.450;2024-02-26T10:58:29;3.80;;;3.40;;
840;SDS011;406;48.566;13.450;2024-02-26T11:00:57;4.43;;;4.03;;
840;SDS011;406;48.566;13.450;2024-02-26T11:03:25;6.30;;;4.73;;
840;SDS011;406;48.566;13.450;2024-02-26T11:05:52;6.10;;;3.73;;
840;SDS011;406;48.566;13.450;2024-02-26T11:08:19;4.23;;;3.20;;
840;SDS011;406;48.566;13.450;2024-02-26T11:10:52;6.63;;;3.90;;
840;SDS011;406;48.566;13.450;2024-02-26T11:13:20;6.03;;;3.20;;
840;SDS011;406;48.566;13.450;2024-02-26T11:15:47;2.90;;;2.63;;
840;SDS011;406;48.566;13.450;2024-02-26T11:18:15;4.77;;;3.27;;
840;SDS011;406;48.566;13.450;2024-02-26T11:20:43;3.70;;;3.03;;
840;SDS011;406;48.566;13.450;2024-02-26T11:23:10;3.80;;;3.00;;
840;SDS011;406;48.566;13.450;2024-02-26T11:25:37;3.73;;;2.57;;
840;SDS011;406;48.566;13.450;2024-02-26T11:28:08;3.40;;;2.77;;
840;SDS011;406;48.566;13.450;2024-02-26T11:30:37;3.63;;;2.63;;
840;SDS011;406;48.566;13.450;2024-02-26T11:33:06;4.40;;;2.73;;
840;SDS011;406;48.566;13.450;2024-02-26T11:35:37;2.90;;;2.60;;
840;SDS011;406;48.566;13.450;2024-02-26T11:38:04;2.83;;;2.60;;
840;SDS011;406;48.566;13.450;2024-02-26T11:40:33;3.97;;;2.90;;
840;SDS011;406;48.566;13.450;2024-02-26T11:43:00;3.80;;;2.83;;
840;SDS011;406;48.566;13.450;2024-02-26T11:48:15;4.50;;;3.20;;
840;SDS011;406;48.566;13.450;2024-02-26T11:50:47;3.40;;;2.70;;
840;SDS011;406;48.566;13.450;2024-02-26T11:56:13;3.30;;;2.97;;
840;SDS011;406;48.566;13.450;2024-02-26T11:58:40;3.70;;;3.00;;
840;SDS011;406;48.566;13.450;2024-02-26T12:04:17;4.30;;;3.10;;
840;SDS011;406;48.566;13.450;2024-02-26T12:06:55;3.20;;;2.90;;
840;SDS011;406;48.566;13.450;2024-02-26T12:09:36;3.87;;;2.60;;
840;SDS011;406;48.566;13.450;2024-02-26T12:12:10;3.97;;;2.70;;
840;SDS011;406;48.566;13.450;2024-02-26T12:14:50;3.20;;;2.40;;
840;SDS011;406;48.566;13.450;2024-02-26T12:17:24;4.27;;;2.80;;
840;SDS011;406;48.566;13.450;2024-02-26T12:19:52;4.33;;;3.00;;
840;SDS011;406;48.566;13.450;2024-02-26T12:22:20;4.13;;;2.50;;
840;SDS011;406;48.566;13.450;2024-02-26T12:24:46;3.20;;;2.73;;
840;SDS011;406;48.566;13.450;2024-02-26T12:27:13;3.27;;;2.67;;
840;SDS011;406;48.566;13.450;2024-02-26T12:29:39;2.97;;;2.57;;
840;SDS011;406;48.566;13.450;2024-02-26T12:32:06;4.10;;;2.70;;
840;SDS011;406;48.566;13.450;2024-02-26T12:34:33;2.80;;;2.50;;
840;SDS011;406;48.566;13.450;2024-02-26T12:37:00;3.53;;;2.80;;
840;SDS011;406;48.566;13.450;2024-02-26T12:39:27;3.30;;;2.50;;
840;SDS011;406;48.566;13.450;2024-02-26T12:41:55;6.93;;;2.67;;
840;SDS011;406;48.566;13.450;2024-02-26T12:44:25;4.37;;;2.47;;
840;SDS011;406;48.566;13.450;2024-02-26T12:46:59;6.83;;;2.80;;
840;SDS011;406;48.566;13.450;2024-02-26T12:49:30;4.27;;;2.60;;
840;SDS011;406;48.566;13.450;2024-02-26T12:51:56;4.20;;;2.90;;
840;SDS011;406;48.566;13.450;2024-02-26T12:54:33;3.67;;;2.50;;
840;SDS011;406;48.566;13.450;2024-02-26T12:57:01;3.43;;;2.40;;
840;SDS011;406;48.566;13.450;2024-02-26T12:59:28;2.87;;;2.53;;
840;SDS011;406;48.566;13.450;2024-02-26T13:01:55;3.70;;;3.00;;
840;SDS011;406;48.566;13.450;2024-02-26T13:04:22;1.80;;;1.60;;
840;SDS011;406;48.566;13.450;2024-02-26T13:06:50;2.27;;;1.80;;
840;SDS011;406;48.566;13.450;2024-02-26T13:09:16;6.37;;;1.80;;
840;SDS011;406;48.566;13.450;2024-02-26T13:11:45;2.60;;;2.03;;
840;SDS011;406;48.566;13.450;2024-02-26T13:14:19;7.40;;;2.23;;
840;SDS011;406;48.566;13.450;2024-02-26T13:16:55;5.37;;;2.27;;
840;SDS011;406;48.566;13.450;2024-02-26T13:19:22;2.90;;;2.10;;
840;SDS011;406;48.566;13.450;2024-02-26T13:21:49;4.90;;;2.97;;
840;SDS011;406;48.566;13.450;2024-02-26T13:24:15;2.40;;;1.80;;
840;SDS011;406;48.566;13.450;2024-02-26T13:26:42;2.80;;;2.10;;
840;SDS011;406;48.566;13.450;2024-02-26T13:29:09;5.70;;;2.00;;
840;SDS011;406;48.566;13.450;2024-02-26T13:31:43;1.90;;;1.60;;
840;SDS011;406;48.566;13.450;2024-02-26T13:34:10;2.30;;;1.87;;
840;SDS011;406;48.566;13.450;2024-02-26T13:36:37;4.57;;;1.90;;
840;SDS011;406;48.566;13.450;2024-02-26T13:39:04;2.63;;;1.77;;
840;SDS011;406;48.566;13.450;2024-02-26T13:41:31;1.87;;;1.53;;
840;SDS011;406;48.566;13.450;2024-02-26T13:43:58;2.90;;;1.63;;
840;SDS011;406;48.566;13.450;2024-02-26T13:46:25;4.47;;;1.57;;
840;SDS011;406;48.566;13.450;2024-02-26T13:48:53;2.30;;;1.37;;
840;SDS011;406;48.566;13.450;2024-02-26T13:51:21;2.50;;;1.80;;
840;SDS011;406;48.566;13.450;2024-02-26T13:53:47;2.93;;;2.50;;
840;SDS011;406;48.566;13.450;2024-02-26T13:56:14;2.50;;;1.57;;
840;SDS011;406;48.566;13.450;2024-02-26T13:58:41;2.83;;;1.77;;
840;SDS011;406;48.566;13.450;2024-02-26T14:01:07;3.23;;;1.60;;
840;SDS011;406;48.566;13.450;2024-02-26T14:03:35;2.83;;;1.90;;
840;SDS011;406;48.566;13.450;2024-02-26T14:06:02;3.13;;;1.83;;
840;SDS011;406;48.566;13.450;2024-02-26T14:08:28;3.40;;;1.60;;
840;SDS011;406;48.566;13.450;2024-02-26T14:10:55;1.47;;;1.20;;
840;SDS011;406;48.566;13.450;2024-02-26T14:13:22;2.60;;;1.60;;
840;SDS011;406;48.566;13.450;2024-02-26T14:15:49;2.60;;;1.30;;
840;SDS011;406;48.566;13.450;2024-02-26T14:18:15;2.23;;;1.60;;
840;SDS011;406;48.566;13.450;2024-02-26T14:20:42;2.70;;;1.67;;
840;SDS011;406;48.566;13.450;2024-02-26T14:23:10;3.00;;;1.40;;
840;SDS011;406;48.566;13.450;2024-02-26T14:25:37;2.20;;;1.37;;
840;SDS011;406;48.566;13.450;2024-02-26T14:28:03;3.27;;;1.33;;
840;SDS011;406;48.566;13.450;2024-02-26T14:30:30;2.27;;;1.90;;
840;SDS011;406;48.566;13.450;2024-02-26T14:32:57;2.20;;;1.60;;
840;SDS011;406;48.566;13.450;2024-02-26T14:35:24;2.73;;;1.90;;
840;SDS011;406;48.566;13.450;2024-02-26T14:37:51;2.57;;;1.60;;
840;SDS011;406;48.566;13.450;2024-02-26T14:40:18;1.80;;;1.30;;
840;SDS011;406;48.566;13.450;2024-02-26T14:42:45;3.00;;;1.90;;
840;SDS011;406;48.566;13.450;2024-02-26T14:45:11;2.47;;;1.83;;
840;SDS011;406;48.566;13.450;2024-02-26T14:47:38;3.83;;;1.40;;
840;SDS011;406;48.566;13.450;2024-02-26T14:50:05;2.87;;;1.57;;
840;SDS011;406;48.566;13.450;2024-02-26T14:52:32;3.90;;;1.70;;
840;SDS011;406;48.566;13.450;2024-02-26T14:54:59;1.93;;;1.63;;
840;SDS011;406;48.566;13.450;2024-02-26T14:57:25;5.10;;;1.70;;
840;SDS011;406;48.566;13.450;2024-02-26T14:59:52;2.53;;;1.60;;
840;SDS011;406;48.566;13.450;2024-02-26T15:02:19;2.10;;;1.57;;
840;SDS011;406;48.566;13.450;2024-02-26T15:04:45;1.80;;;1.10;;
840;SDS011;406;48.566;13.450;2024-02-26T15:07:12;2.00;;;1.73;;
840;SDS011;406;48.566;13.450;2024-02-26T15:09:42;4.53;;;2.30;;
840;SDS011;406;48.566;13.450;2024-02-26T15:12:08;3.00;;;2.00;;
840;SDS011;406;48.566;13.450;2024-02-26T15:14:36;2.70;;;1.87;;
840;SDS011;406;48.566;13.450;2024-02-26T15:17:03;2.97;;;2.43;;
840;SDS011;406;48.566;13.450;2024-02-26T15:19:29;3.20;;;2.30;;
840;SDS011;406;48.566;13.450;2024-02-26T15:21:56;3.60;;;2.57;;
840;SDS011;406;48.566;13.450;2024-02-26T15:24:23;2.70;;;2.30;;